sensor_id;sensor_type;location;lat;lon;timestamp;P1;durP1;ratioP1;P2;durP2;ratioP2
15635;SDS011;7917;50.818;6.972;2023-03-16T00:01:40;10.93;;;5.22;;
15635;SDS011;7917;50.818;6.972;2023-03-16T00:04:07;11.18;;;5.25;;
15635;SDS011;7917;50.818;6.972;2023-03-16T00:06:33;8.20;;;5.20;;
15635;SDS011;7917;50.818;6.972;2023-03-16T00:09:01;7.70;;;4.80;;
15635;SDS011;7917;50.818;6.972;2023-03-16T00:11:28;6.68;;;5.13;;
15635;SDS011;7917;50.818;6.972;2023-03-16T00:13:54;8.40;;;4.97;;
15635;SDS011;7917;50.818;6.972;2023-03-16T00:16:23;7.22;;;4.95;;
15635;SDS011;7917;50.818;6.972;2023-03-16T00:18:49;6.72;;;4.97;;
15635;SDS011;7917;50.818;6.972;2023-03-16T00:21:16;7.45;;;5.47;;
15635;SDS011;7917;50.818;6.972;2023-03-16T00:23:43;7.93;;;4.93;;
15635;SDS011;7917;50.818;6.972;2023-03-16T00:26:15;12.95;;;5.18;;
15635;SDS011;7917;50.818;6.972;2023-03-16T00:28:42;9.73;;;5.00;;
15635;SDS011;7917;50.818;6.972;2023-03-16T00:31:09;10.32;;;5.35;;
15635;SDS011;7917;50.818;6.972;2023-03-16T00:33:36;12.35;;;5.53;;
15635;SDS011;7917;50.818;6.972;2023-03-16T00:36:04;11.02;;;5.60;;
15635;SDS011;7917;50.818;6.972;2023-03-16T00:38:34;10.20;;;5.53;;
15635;SDS011;7917;50.818;6.972;2023-03-16T00:41:03;9.23;;;4.88;;
15635;SDS011;7917;50.818;6.972;2023-03-16T00:43:31;6.10;;;4.40;;
15635;SDS011;7917;50.818;6.972;2023-03-16T00:46:05;7.90;;;4.38;;
15635;SDS011;7917;50.818;6.972;2023-03-16T00:48:32;6.70;;;4.90;;
15635;SDS011;7917;50.818;6.972;2023-03-16T00:51:00;7.70;;;4.68;;
15635;SDS011;7917;50.818;6.972;2023-03-16T00:53:27;7.05;;;4.68;;
15635;SDS011;7917;50.818;6.972;2023-03-16T00:55:55;7.93;;;4.85;;
15635;SDS011;7917;50.818;6.972;2023-03-16T00:58:22;6.82;;;4.82;;
15635;SDS011;7917;50.818;6.972;2023-03-16T01:00:48;8.20;;;4.57;;
15635;SDS011;7917;50.818;6.972;2023-03-16T01:03:17;8.18;;;4.85;;
15635;SDS011;7917;50.818;6.972;2023-03-16T01:05:44;7.55;;;4.60;;
15635;SDS011;7917;50.818;6.972;2023-03-16T01:08:11;9.77;;;4.57;;
15635;SDS011;7917;50.818;6.972;2023-03-16T01:10:38;7.20;;;4.28;;
15635;SDS011;7917;50.818;6.972;2023-03-16T01:13:05;6.88;;;4.00;;
15635;SDS011;7917;50.818;6.972;2023-03-16T01:15:32;6.72;;;4.00;;
15635;SDS011;7917;50.818;6.972;2023-03-16T01:17:59;8.73;;;4.22;;
15635;SDS011;7917;50.818;6.972;2023-03-16T01:20:26;6.05;;;3.92;;
15635;SDS011;7917;50.818;6.972;2023-03-16T01:22:52;4.57;;;3.42;;
15635;SDS011;7917;50.818;6.972;2023-03-16T01:25:20;6.97;;;4.07;;
15635;SDS011;7917;50.818;6.972;2023-03-16T01:27:48;6.03;;;4.05;;
15635;SDS011;7917;50.818;6.972;2023-03-16T01:30:15;8.73;;;4.45;;
15635;SDS011;7917;50.818;6.972;2023-03-16T01:32:42;7.93;;;4.05;;
15635;SDS011;7917;50.818;6.972;2023-03-16T01:35:08;8.32;;;3.72;;
15635;SDS011;7917;50.818;6.972;2023-03-16T01:37:35;5.55;;;3.97;;
15635;SDS011;7917;50.818;6.972;2023-03-16T01:40:02;7.88;;;4.13;;
15635;SDS011;7917;50.818;6.972;2023-03-16T01:42:30;5.25;;;4.00;;
15635;SDS011;7917;50.818;6.972;2023-03-16T01:44:58;6.88;;;4.43;;
15635;SDS011;7917;50.818;6.972;2023-03-16T01:47:30;8.68;;;4.00;;
15635;SDS011;7917;50.818;6.972;2023-03-16T01:50:02;6.68;;;4.45;;
15635;SDS011;7917;50.818;6.972;2023-03-16T01:52:30;5.57;;;4.15;;
15635;SDS011;7917;50.818;6.972;2023-03-16T01:55:05;7.78;;;4.85;;
15635;SDS011;7917;50.818;6.972;2023-03-16T01:57:34;10.52;;;4.65;;
15635;SDS011;7917;50.818;6.972;2023-03-16T02:00:05;7.53;;;4.18;;
15635;SDS011;7917;50.818;6.972;2023-03-16T02:02:38;10.98;;;4.63;;
15635;SDS011;7917;50.818;6.972;2023-03-16T02:05:09;8.15;;;5.03;;
15635;SDS011;7917;50.818;6.972;2023-03-16T02:07:39;7.70;;;4.95;;
15635;SDS011;7917;50.818;6.972;2023-03-16T02:10:10;6.43;;;3.97;;
15635;SDS011;7917;50.818;6.972;2023-03-16T02:12:39;6.05;;;4.20;;
15635;SDS011;7917;50.818;6.972;2023-03-16T02:15:05;7.22;;;4.47;;
15635;SDS011;7917;50.818;6.972;2023-03-16T02:17:33;8.43;;;4.13;;
15635;SDS011;7917;50.818;6.972;2023-03-16T02:20:05;5.18;;;3.63;;
15635;SDS011;7917;50.818;6.972;2023-03-16T02:22:42;6.63;;;4.30;;
15635;SDS011;7917;50.818;6.972;2023-03-16T02:25:11;7.45;;;4.45;;
15635;SDS011;7917;50.818;6.972;2023-03-16T02:27:42;8.38;;;4.25;;
15635;SDS011;7917;50.818;6.972;2023-03-16T02:30:17;10.00;;;4.32;;
15635;SDS011;7917;50.818;6.972;2023-03-16T02:32:46;7.28;;;4.10;;
15635;SDS011;7917;50.818;6.972;2023-03-16T02:35:17;8.20;;;4.35;;
15635;SDS011;7917;50.818;6.972;2023-03-16T02:37:44;6.55;;;4.82;;
15635;SDS011;7917;50.818;6.972;2023-03-16T02:40:19;8.40;;;4.80;;
15635;SDS011;7917;50.818;6.972;2023-03-16T02:42:53;11.45;;;3.70;;
15635;SDS011;7917;50.818;6.972;2023-03-16T02:45:28;7.10;;;3.83;;
15635;SDS011;7917;50.818;6.972;2023-03-16T02:47:58;14.95;;;4.25;;
15635;SDS011;7917;50.818;6.972;2023-03-16T02:50:28;5.18;;;4.20;;
15635;SDS011;7917;50.818;6.972;2023-03-16T02:52:56;6.93;;;4.00;;
15635;SDS011;7917;50.818;6.972;2023-03-16T02:55:22;6.00;;;3.80;;
15635;SDS011;7917;50.818;6.972;2023-03-16T02:57:48;8.15;;;4.20;;
15635;SDS011;7917;50.818;6.972;2023-03-16T03:00:16;8.13;;;3.92;;
15635;SDS011;7917;50.818;6.972;2023-03-16T03:02:46;6.70;;;3.55;;
15635;SDS011;7917;50.818;6.972;2023-03-16T03:05:13;6.43;;;3.63;;
15635;SDS011;7917;50.818;6.972;2023-03-16T03:07:40;5.47;;;3.67;;
15635;SDS011;7917;50.818;6.972;2023-03-16T03:10:06;6.97;;;3.65;;
15635;SDS011;7917;50.818;6.972;2023-03-16T03:12:34;6.13;;;4.15;;
15635;SDS011;7917;50.818;6.972;2023-03-16T03:15:01;4.40;;;3.40;;
15635;SDS011;7917;50.818;6.972;2023-03-16T03:17:31;7.88;;;5.22;;
15635;SDS011;7917;50.818;6.972;2023-03-16T03:19:58;9.35;;;3.75;;
15635;SDS011;7917;50.818;6.972;2023-03-16T03:22:32;6.88;;;4.05;;
15635;SDS011;7917;50.818;6.972;2023-03-16T03:24:59;5.65;;;3.53;;
15635;SDS011;7917;50.818;6.972;2023-03-16T03:27:27;7.85;;;3.67;;
15635;SDS011;7917;50.818;6.972;2023-03-16T03:29:53;5.97;;;3.55;;
15635;SDS011;7917;50.818;6.972;2023-03-16T03:32:20;6.22;;;4.43;;
15635;SDS011;7917;50.818;6.972;2023-03-16T03:34:46;7.75;;;3.80;;
15635;SDS011;7917;50.818;6.972;2023-03-16T03:37:13;7.47;;;4.00;;
15635;SDS011;7917;50.818;6.972;2023-03-16T03:39:40;5.25;;;3.78;;
15635;SDS011;7917;50.818;6.972;2023-03-16T03:42:06;5.38;;;3.67;;
15635;SDS011;7917;50.818;6.972;2023-03-16T03:44:36;5.35;;;4.05;;
15635;SDS011;7917;50.818;6.972;2023-03-16T03:47:03;5.10;;;3.88;;
15635;SDS011;7917;50.818;6.972;2023-03-16T03:49:30;13.77;;;4.15;;
15635;SDS011;7917;50.818;6.972;2023-03-16T03:51:56;8.70;;;4.30;;
15635;SDS011;7917;50.818;6.972;2023-03-16T03:54:28;7.50;;;4.25;;
15635;SDS011;7917;50.818;6.972;2023-03-16T03:56:54;6.05;;;3.78;;
15635;SDS011;7917;50.818;6.972;2023-03-16T03:59:21;6.60;;;4.38;;
15635;SDS011;7917;50.818;6.972;2023-03-16T04:01:47;6.85;;;4.47;;
15635;SDS011;7917;50.818;6.972;2023-03-16T04:04:14;6.15;;;3.85;;
15635;SDS011;7917;50.818;6.972;2023-03-16T04:07:00;6.05;;;4.05;;
15635;SDS011;7917;50.818;6.972;2023-03-16T04:09:27;6.32;;;4.20;;
15635;SDS011;7917;50.818;6.972;2023-03-16T04:11:58;8.60;;;4.32;;
15635;SDS011;7917;50.818;6.972;2023-03-16T04:14:25;6.25;;;4.07;;
15635;SDS011;7917;50.818;6.972;2023-03-16T04:16:52;8.48;;;3.92;;
15635;SDS011;7917;50.818;6.972;2023-03-16T04:19:22;7.53;;;3.80;;
15635;SDS011;7917;50.818;6.972;2023-03-16T04:21:50;13.82;;;4.47;;
15635;SDS011;7917;50.818;6.972;2023-03-16T04:24:17;7.63;;;4.40;;
15635;SDS011;7917;50.818;6.972;2023-03-16T04:26:44;7.35;;;4.03;;
15635;SDS011;7917;50.818;6.972;2023-03-16T04:29:12;5.60;;;4.03;;
15635;SDS011;7917;50.818;6.972;2023-03-16T04:31:42;8.88;;;4.78;;
15635;SDS011;7917;50.818;6.972;2023-03-16T04:34:09;5.88;;;4.38;;
15635;SDS011;7917;50.818;6.972;2023-03-16T04:36:37;8.88;;;4.68;;
15635;SDS011;7917;50.818;6.972;2023-03-16T04:39:04;9.65;;;4.65;;
15635;SDS011;7917;50.818;6.972;2023-03-16T04:41:32;8.43;;;4.82;;
15635;SDS011;7917;50.818;6.972;2023-03-16T04:43:59;8.73;;;4.30;;
15635;SDS011;7917;50.818;6.972;2023-03-16T04:46:26;6.30;;;4.22;;
15635;SDS011;7917;50.818;6.972;2023-03-16T04:48:54;8.70;;;4.50;;
15635;SDS011;7917;50.818;6.972;2023-03-16T04:51:22;7.88;;;4.38;;
15635;SDS011;7917;50.818;6.972;2023-03-16T04:53:50;9.55;;;4.97;;
15635;SDS011;7917;50.818;6.972;2023-03-16T04:56:17;7.85;;;5.03;;
15635;SDS011;7917;50.818;6.972;2023-03-16T04:58:44;9.63;;;5.50;;
15635;SDS011;7917;50.818;6.972;2023-03-16T05:04:13;6.65;;;4.55;;
15635;SDS011;7917;50.818;6.972;2023-03-16T05:06:41;7.05;;;4.35;;
15635;SDS011;7917;50.818;6.972;2023-03-16T05:09:09;10.13;;;5.22;;
15635;SDS011;7917;50.818;6.972;2023-03-16T05:11:36;9.10;;;5.15;;
15635;SDS011;7917;50.818;6.972;2023-03-16T05:14:06;9.48;;;4.88;;
15635;SDS011;7917;50.818;6.972;2023-03-16T05:16:34;7.90;;;4.90;;
15635;SDS011;7917;50.818;6.972;2023-03-16T05:19:01;8.02;;;5.50;;
15635;SDS011;7917;50.818;6.972;2023-03-16T05:21:29;7.85;;;5.05;;
15635;SDS011;7917;50.818;6.972;2023-03-16T05:24:01;10.90;;;5.72;;
15635;SDS011;7917;50.818;6.972;2023-03-16T05:26:28;9.77;;;5.38;;
15635;SDS011;7917;50.818;6.972;2023-03-16T05:28:55;6.45;;;4.95;;
15635;SDS011;7917;50.818;6.972;2023-03-16T05:31:23;9.60;;;5.20;;
15635;SDS011;7917;50.818;6.972;2023-03-16T05:33:50;8.82;;;5.57;;
15635;SDS011;7917;50.818;6.972;2023-03-16T05:36:18;11.50;;;5.53;;
15635;SDS011;7917;50.818;6.972;2023-03-16T05:38:46;8.85;;;6.05;;
15635;SDS011;7917;50.818;6.972;2023-03-16T05:41:13;7.88;;;5.70;;
15635;SDS011;7917;50.818;6.972;2023-03-16T05:43:42;10.88;;;6.05;;
15635;SDS011;7917;50.818;6.972;2023-03-16T05:46:09;9.90;;;5.50;;
15635;SDS011;7917;50.818;6.972;2023-03-16T05:48:36;10.55;;;5.25;;
15635;SDS011;7917;50.818;6.972;2023-03-16T05:51:03;9.43;;;5.78;;
15635;SDS011;7917;50.818;6.972;2023-03-16T05:53:31;7.40;;;5.22;;
15635;SDS011;7917;50.818;6.972;2023-03-16T05:55:59;9.00;;;5.72;;
15635;SDS011;7917;50.818;6.972;2023-03-16T05:58:26;13.35;;;6.03;;
15635;SDS011;7917;50.818;6.972;2023-03-16T06:00:53;8.65;;;5.28;;
15635;SDS011;7917;50.818;6.972;2023-03-16T06:03:23;9.95;;;5.88;;
15635;SDS011;7917;50.818;6.972;2023-03-16T06:05:52;13.77;;;5.85;;
15635;SDS011;7917;50.818;6.972;2023-03-16T06:08:19;10.80;;;6.00;;
15635;SDS011;7917;50.818;6.972;2023-03-16T06:10:47;9.02;;;6.10;;
15635;SDS011;7917;50.818;6.972;2023-03-16T06:13:14;6.80;;;5.13;;
15635;SDS011;7917;50.818;6.972;2023-03-16T06:15:41;9.57;;;6.20;;
15635;SDS011;7917;50.818;6.972;2023-03-16T06:18:09;9.50;;;5.68;;
15635;SDS011;7917;50.818;6.972;2023-03-16T06:20:36;8.35;;;5.78;;
15635;SDS011;7917;50.818;6.972;2023-03-16T06:23:03;11.45;;;6.28;;
15635;SDS011;7917;50.818;6.972;2023-03-16T06:25:30;10.30;;;6.13;;
15635;SDS011;7917;50.818;6.972;2023-03-16T06:27:58;11.82;;;6.18;;
15635;SDS011;7917;50.818;6.972;2023-03-16T06:30:25;9.57;;;6.00;;
15635;SDS011;7917;50.818;6.972;2023-03-16T06:32:55;8.27;;;6.10;;
15635;SDS011;7917;50.818;6.972;2023-03-16T06:35:24;9.55;;;5.80;;
15635;SDS011;7917;50.818;6.972;2023-03-16T06:37:51;8.98;;;5.93;;
15635;SDS011;7917;50.818;6.972;2023-03-16T06:40:18;10.38;;;6.05;;
15635;SDS011;7917;50.818;6.972;2023-03-16T06:42:46;10.45;;;5.95;;
15635;SDS011;7917;50.818;6.972;2023-03-16T06:45:18;7.60;;;5.45;;
15635;SDS011;7917;50.818;6.972;2023-03-16T06:47:46;14.02;;;7.90;;
15635;SDS011;7917;50.818;6.972;2023-03-16T06:50:14;10.52;;;6.25;;
15635;SDS011;7917;50.818;6.972;2023-03-16T06:52:41;10.70;;;6.50;;
15635;SDS011;7917;50.818;6.972;2023-03-16T06:55:08;9.70;;;5.82;;
15635;SDS011;7917;50.818;6.972;2023-03-16T06:57:37;8.98;;;5.93;;
15635;SDS011;7917;50.818;6.972;2023-03-16T07:00:04;10.95;;;6.55;;
15635;SDS011;7917;50.818;6.972;2023-03-16T07:02:34;10.18;;;5.25;;
15635;SDS011;7917;50.818;6.972;2023-03-16T07:05:01;10.85;;;5.13;;
15635;SDS011;7917;50.818;6.972;2023-03-16T07:07:28;10.48;;;6.95;;
15635;SDS011;7917;50.818;6.972;2023-03-16T07:09:54;9.70;;;6.53;;
15635;SDS011;7917;50.818;6.972;2023-03-16T07:12:21;9.13;;;5.53;;
15635;SDS011;7917;50.818;6.972;2023-03-16T07:14:48;8.55;;;5.65;;
15635;SDS011;7917;50.818;6.972;2023-03-16T07:17:16;10.90;;;5.53;;
15635;SDS011;7917;50.818;6.972;2023-03-16T07:19:50;10.00;;;6.07;;
15635;SDS011;7917;50.818;6.972;2023-03-16T07:22:17;9.60;;;5.68;;
15635;SDS011;7917;50.818;6.972;2023-03-16T07:24:44;8.60;;;4.93;;
15635;SDS011;7917;50.818;6.972;2023-03-16T07:27:11;7.63;;;5.53;;
15635;SDS011;7917;50.818;6.972;2023-03-16T07:29:38;9.57;;;5.55;;
15635;SDS011;7917;50.818;6.972;2023-03-16T07:32:06;8.27;;;5.75;;
15635;SDS011;7917;50.818;6.972;2023-03-16T07:34:33;8.35;;;4.95;;
15635;SDS011;7917;50.818;6.972;2023-03-16T07:37:05;7.22;;;5.38;;
15635;SDS011;7917;50.818;6.972;2023-03-16T07:39:33;8.52;;;5.72;;
15635;SDS011;7917;50.818;6.972;2023-03-16T07:42:00;6.93;;;5.47;;
15635;SDS011;7917;50.818;6.972;2023-03-16T07:44:29;9.82;;;6.10;;
15635;SDS011;7917;50.818;6.972;2023-03-16T07:46:59;8.90;;;5.53;;
15635;SDS011;7917;50.818;6.972;2023-03-16T07:49:33;7.22;;;4.53;;
15635;SDS011;7917;50.818;6.972;2023-03-16T07:52:01;7.20;;;4.95;;
15635;SDS011;7917;50.818;6.972;2023-03-16T07:54:28;7.50;;;5.27;;
15635;SDS011;7917;50.818;6.972;2023-03-16T07:56:55;10.07;;;5.57;;
15635;SDS011;7917;50.818;6.972;2023-03-16T07:59:44;7.15;;;5.13;;
15635;SDS011;7917;50.818;6.972;2023-03-16T08:02:11;9.70;;;5.15;;
15635;SDS011;7917;50.818;6.972;2023-03-16T08:04:40;5.95;;;4.55;;
15635;SDS011;7917;50.818;6.972;2023-03-16T08:07:07;8.23;;;4.90;;
15635;SDS011;7917;50.818;6.972;2023-03-16T08:09:35;8.00;;;5.35;;
15635;SDS011;7917;50.818;6.972;2023-03-16T08:12:02;7.60;;;5.05;;
15635;SDS011;7917;50.818;6.972;2023-03-16T08:14:36;11.27;;;5.32;;
15635;SDS011;7917;50.818;6.972;2023-03-16T08:17:04;5.97;;;4.50;;
15635;SDS011;7917;50.818;6.972;2023-03-16T08:19:32;7.05;;;4.60;;
15635;SDS011;7917;50.818;6.972;2023-03-16T08:21:58;5.55;;;4.45;;
15635;SDS011;7917;50.818;6.972;2023-03-16T08:24:26;10.27;;;4.97;;
15635;SDS011;7917;50.818;6.972;2023-03-16T08:26:55;5.18;;;4.25;;
15635;SDS011;7917;50.818;6.972;2023-03-16T08:29:23;6.75;;;5.20;;
15635;SDS011;7917;50.818;6.972;2023-03-16T08:31:51;5.68;;;4.88;;
15635;SDS011;7917;50.818;6.972;2023-03-16T08:34:20;7.10;;;4.40;;
15635;SDS011;7917;50.818;6.972;2023-03-16T08:36:47;7.00;;;4.85;;
15635;SDS011;7917;50.818;6.972;2023-03-16T08:39:16;7.18;;;4.38;;
15635;SDS011;7917;50.818;6.972;2023-03-16T08:41:43;6.63;;;4.82;;
15635;SDS011;7917;50.818;6.972;2023-03-16T08:44:12;6.47;;;4.78;;
15635;SDS011;7917;50.818;6.972;2023-03-16T08:46:39;6.72;;;4.57;;
15635;SDS011;7917;50.818;6.972;2023-03-16T08:49:06;10.38;;;5.22;;
15635;SDS011;7917;50.818;6.972;2023-03-16T08:51:33;10.18;;;5.63;;
15635;SDS011;7917;50.818;6.972;2023-03-16T08:54:01;6.75;;;4.75;;
15635;SDS011;7917;50.818;6.972;2023-03-16T08:56:28;9.80;;;5.25;;
15635;SDS011;7917;50.818;6.972;2023-03-16T08:58:55;7.55;;;5.13;;
15635;SDS011;7917;50.818;6.972;2023-03-16T09:01:24;8.20;;;5.45;;
15635;SDS011;7917;50.818;6.972;2023-03-16T09:03:51;7.18;;;5.00;;
15635;SDS011;7917;50.818;6.972;2023-03-16T09:06:19;8.48;;;4.75;;
15635;SDS011;7917;50.818;6.972;2023-03-16T09:08:47;8.02;;;5.47;;
15635;SDS011;7917;50.818;6.972;2023-03-16T09:11:14;7.63;;;4.18;;
15635;SDS011;7917;50.818;6.972;2023-03-16T09:13:43;6.43;;;4.32;;
15635;SDS011;7917;50.818;6.972;2023-03-16T09:16:14;8.73;;;4.88;;
15635;SDS011;7917;50.818;6.972;2023-03-16T09:18:42;8.45;;;4.82;;
15635;SDS011;7917;50.818;6.972;2023-03-16T09:21:09;7.35;;;4.93;;
15635;SDS011;7917;50.818;6.972;2023-03-16T09:23:38;8.27;;;4.45;;
15635;SDS011;7917;50.818;6.972;2023-03-16T09:26:06;7.45;;;4.53;;
15635;SDS011;7917;50.818;6.972;2023-03-16T09:28:34;5.93;;;4.70;;
15635;SDS011;7917;50.818;6.972;2023-03-16T09:31:04;6.40;;;4.55;;
15635;SDS011;7917;50.818;6.972;2023-03-16T09:33:31;6.55;;;4.90;;
15635;SDS011;7917;50.818;6.972;2023-03-16T09:36:00;9.43;;;5.25;;
15635;SDS011;7917;50.818;6.972;2023-03-16T09:38:28;9.93;;;5.10;;
15635;SDS011;7917;50.818;6.972;2023-03-16T09:40:56;6.20;;;5.03;;
15635;SDS011;7917;50.818;6.972;2023-03-16T09:43:28;8.05;;;5.32;;
15635;SDS011;7917;50.818;6.972;2023-03-16T09:46:05;6.28;;;4.85;;
15635;SDS011;7917;50.818;6.972;2023-03-16T09:48:36;7.55;;;5.38;;
15635;SDS011;7917;50.818;6.972;2023-03-16T09:51:05;7.97;;;5.30;;
15635;SDS011;7917;50.818;6.972;2023-03-16T09:53:38;5.80;;;5.00;;
15635;SDS011;7917;50.818;6.972;2023-03-16T09:56:08;6.30;;;4.80;;
15635;SDS011;7917;50.818;6.972;2023-03-16T09:58:42;11.13;;;6.70;;
15635;SDS011;7917;50.818;6.972;2023-03-16T10:01:11;8.73;;;5.47;;
15635;SDS011;7917;50.818;6.972;2023-03-16T10:03:52;5.82;;;4.72;;
15635;SDS011;7917;50.818;6.972;2023-03-16T10:06:29;6.15;;;4.63;;
15635;SDS011;7917;50.818;6.972;2023-03-16T10:08:59;6.70;;;4.07;;
15635;SDS011;7917;50.818;6.972;2023-03-16T10:11:32;6.68;;;5.45;;
15635;SDS011;7917;50.818;6.972;2023-03-16T10:14:09;11.18;;;5.88;;
15635;SDS011;7917;50.818;6.972;2023-03-16T10:16:46;7.65;;;5.18;;
15635;SDS011;7917;50.818;6.972;2023-03-16T10:19:40;6.57;;;5.32;;
15635;SDS011;7917;50.818;6.972;2023-03-16T10:22:14;9.05;;;5.22;;
15635;SDS011;7917;50.818;6.972;2023-03-16T10:24:47;8.18;;;5.28;;
15635;SDS011;7917;50.818;6.972;2023-03-16T10:27:26;7.57;;;5.35;;
15635;SDS011;7917;50.818;6.972;2023-03-16T10:29:55;10.40;;;5.38;;
15635;SDS011;7917;50.818;6.972;2023-03-16T10:32:28;6.15;;;4.60;;
15635;SDS011;7917;50.818;6.972;2023-03-16T10:35:01;7.53;;;4.20;;
15635;SDS011;7917;50.818;6.972;2023-03-16T10:37:33;6.97;;;4.38;;
15635;SDS011;7917;50.818;6.972;2023-03-16T10:40:05;6.40;;;4.88;;
15635;SDS011;7917;50.818;6.972;2023-03-16T10:42:36;6.25;;;4.13;;
15635;SDS011;7917;50.818;6.972;2023-03-16T10:45:04;7.15;;;4.22;;
15635;SDS011;7917;50.818;6.972;2023-03-16T10:47:45;8.13;;;4.85;;
15635;SDS011;7917;50.818;6.972;2023-03-16T10:50:12;10.40;;;6.57;;
15635;SDS011;7917;50.818;6.972;2023-03-16T10:52:43;10.75;;;6.38;;
15635;SDS011;7917;50.818;6.972;2023-03-16T10:55:15;8.93;;;4.57;;
15635;SDS011;7917;50.818;6.972;2023-03-16T10:57:47;8.88;;;5.63;;
15635;SDS011;7917;50.818;6.972;2023-03-16T11:00:18;7.38;;;5.47;;
15635;SDS011;7917;50.818;6.972;2023-03-16T11:02:47;8.10;;;5.57;;
15635;SDS011;7917;50.818;6.972;2023-03-16T11:05:24;9.38;;;5.20;;
15635;SDS011;7917;50.818;6.972;2023-03-16T11:07:59;7.38;;;4.88;;
15635;SDS011;7917;50.818;6.972;2023-03-16T11:10:28;7.78;;;5.50;;
15635;SDS011;7917;50.818;6.972;2023-03-16T11:13:02;8.48;;;4.55;;
15635;SDS011;7917;50.818;6.972;2023-03-16T11:15:36;8.07;;;5.10;;
15635;SDS011;7917;50.818;6.972;2023-03-16T11:18:09;7.15;;;4.22;;
15635;SDS011;7917;50.818;6.972;2023-03-16T11:20:49;6.07;;;4.50;;
15635;SDS011;7917;50.818;6.972;2023-03-16T11:23:17;10.30;;;5.30;;
15635;SDS011;7917;50.818;6.972;2023-03-16T11:25:51;7.22;;;5.10;;
15635;SDS011;7917;50.818;6.972;2023-03-16T11:28:23;7.45;;;4.50;;
15635;SDS011;7917;50.818;6.972;2023-03-16T11:31:01;6.85;;;4.30;;
15635;SDS011;7917;50.818;6.972;2023-03-16T11:33:39;5.97;;;3.97;;
15635;SDS011;7917;50.818;6.972;2023-03-16T11:36:11;5.18;;;3.80;;
15635;SDS011;7917;50.818;6.972;2023-03-16T11:38:57;4.88;;;3.83;;
15635;SDS011;7917;50.818;6.972;2023-03-16T11:41:33;6.65;;;3.80;;
15635;SDS011;7917;50.818;6.972;2023-03-16T11:44:08;6.10;;;4.30;;
15635;SDS011;7917;50.818;6.972;2023-03-16T11:46:43;5.07;;;2.85;;
15635;SDS011;7917;50.818;6.972;2023-03-16T11:49:30;6.43;;;3.90;;
15635;SDS011;7917;50.818;6.972;2023-03-16T11:52:19;9.70;;;3.22;;
15635;SDS011;7917;50.818;6.972;2023-03-16T11:54:59;4.28;;;2.92;;
15635;SDS011;7917;50.818;6.972;2023-03-16T11:57:40;4.13;;;2.38;;
15635;SDS011;7917;50.818;6.972;2023-03-16T12:00:29;5.43;;;2.60;;
15635;SDS011;7917;50.818;6.972;2023-03-16T12:03:16;3.33;;;2.63;;
15635;SDS011;7917;50.818;6.972;2023-03-16T12:06:07;3.45;;;2.70;;
15635;SDS011;7917;50.818;6.972;2023-03-16T12:08:51;5.70;;;3.13;;
15635;SDS011;7917;50.818;6.972;2023-03-16T12:11:46;4.72;;;2.40;;
15635;SDS011;7917;50.818;6.972;2023-03-16T12:14:21;4.22;;;2.75;;
15635;SDS011;7917;50.818;6.972;2023-03-16T12:16:53;4.57;;;2.67;;
15635;SDS011;7917;50.818;6.972;2023-03-16T12:19:30;4.05;;;2.38;;
15635;SDS011;7917;50.818;6.972;2023-03-16T12:22:25;5.90;;;3.22;;
15635;SDS011;7917;50.818;6.972;2023-03-16T12:25:01;4.95;;;2.90;;
15635;SDS011;7917;50.818;6.972;2023-03-16T12:27:31;5.93;;;3.03;;
15635;SDS011;7917;50.818;6.972;2023-03-16T12:30:02;9.95;;;2.65;;
15635;SDS011;7917;50.818;6.972;2023-03-16T12:32:47;7.55;;;2.88;;
15635;SDS011;7917;50.818;6.972;2023-03-16T12:35:26;5.38;;;2.80;;
15635;SDS011;7917;50.818;6.972;2023-03-16T12:38:09;6.50;;;3.03;;
15635;SDS011;7917;50.818;6.972;2023-03-16T12:40:53;3.70;;;2.35;;
15635;SDS011;7917;50.818;6.972;2023-03-16T12:43:40;5.03;;;2.65;;
15635;SDS011;7917;50.818;6.972;2023-03-16T12:46:21;4.20;;;2.30;;
15635;SDS011;7917;50.818;6.972;2023-03-16T12:48:55;4.68;;;2.38;;
15635;SDS011;7917;50.818;6.972;2023-03-16T12:51:34;5.45;;;2.05;;
15635;SDS011;7917;50.818;6.972;2023-03-16T12:54:04;4.97;;;2.42;;
15635;SDS011;7917;50.818;6.972;2023-03-16T12:56:43;4.45;;;2.47;;
15635;SDS011;7917;50.818;6.972;2023-03-16T12:59:17;2.55;;;1.83;;
15635;SDS011;7917;50.818;6.972;2023-03-16T13:01:47;3.97;;;2.00;;
15635;SDS011;7917;50.818;6.972;2023-03-16T13:04:16;5.63;;;2.80;;
15635;SDS011;7917;50.818;6.972;2023-03-16T13:06:45;7.03;;;2.75;;
15635;SDS011;7917;50.818;6.972;2023-03-16T13:09:18;8.60;;;3.10;;
15635;SDS011;7917;50.818;6.972;2023-03-16T13:11:49;4.97;;;2.53;;
15635;SDS011;7917;50.818;6.972;2023-03-16T13:14:33;5.20;;;2.63;;
15635;SDS011;7917;50.818;6.972;2023-03-16T13:17:20;4.65;;;2.55;;
15635;SDS011;7917;50.818;6.972;2023-03-16T13:20:00;5.38;;;2.35;;
15635;SDS011;7917;50.818;6.972;2023-03-16T13:22:50;3.25;;;2.40;;
15635;SDS011;7917;50.818;6.972;2023-03-16T13:25:39;4.35;;;2.80;;
15635;SDS011;7917;50.818;6.972;2023-03-16T13:28:09;3.72;;;2.60;;
15635;SDS011;7917;50.818;6.972;2023-03-16T13:30:48;7.40;;;3.60;;
15635;SDS011;7917;50.818;6.972;2023-03-16T13:33:17;3.83;;;2.10;;
15635;SDS011;7917;50.818;6.972;2023-03-16T13:35:46;6.60;;;2.47;;
15635;SDS011;7917;50.818;6.972;2023-03-16T13:38:19;3.28;;;2.20;;
15635;SDS011;7917;50.818;6.972;2023-03-16T13:40:55;4.45;;;2.10;;
15635;SDS011;7917;50.818;6.972;2023-03-16T13:43:25;3.20;;;2.13;;
15635;SDS011;7917;50.818;6.972;2023-03-16T13:45:54;3.78;;;1.85;;
15635;SDS011;7917;50.818;6.972;2023-03-16T13:48:21;5.25;;;2.55;;
15635;SDS011;7917;50.818;6.972;2023-03-16T13:50:50;6.80;;;2.22;;
15635;SDS011;7917;50.818;6.972;2023-03-16T13:53:20;4.72;;;2.30;;
15635;SDS011;7917;50.818;6.972;2023-03-16T13:55:53;4.18;;;2.22;;
15635;SDS011;7917;50.818;6.972;2023-03-16T13:58:22;3.38;;;2.35;;
15635;SDS011;7917;50.818;6.972;2023-03-16T14:01:00;5.47;;;2.25;;
15635;SDS011;7917;50.818;6.972;2023-03-16T14:03:29;4.22;;;2.63;;
15635;SDS011;7917;50.818;6.972;2023-03-16T14:06:17;10.48;;;2.30;;
15635;SDS011;7917;50.818;6.972;2023-03-16T14:08:50;4.18;;;1.75;;
15635;SDS011;7917;50.818;6.972;2023-03-16T14:11:26;5.10;;;2.10;;
15635;SDS011;7917;50.818;6.972;2023-03-16T14:13:56;4.30;;;1.95;;
15635;SDS011;7917;50.818;6.972;2023-03-16T14:16:30;4.28;;;1.83;;
15635;SDS011;7917;50.818;6.972;2023-03-16T14:19:00;4.68;;;2.22;;
15635;SDS011;7917;50.818;6.972;2023-03-16T14:21:29;5.95;;;2.13;;
15635;SDS011;7917;50.818;6.972;2023-03-16T14:23:58;3.65;;;1.95;;
15635;SDS011;7917;50.818;6.972;2023-03-16T14:26:38;4.75;;;2.67;;
15635;SDS011;7917;50.818;6.972;2023-03-16T14:29:20;3.65;;;1.88;;
15635;SDS011;7917;50.818;6.972;2023-03-16T14:31:51;3.90;;;2.00;;
15635;SDS011;7917;50.818;6.972;2023-03-16T14:34:19;3.92;;;1.90;;
15635;SDS011;7917;50.818;6.972;2023-03-16T14:37:03;3.55;;;2.10;;
15635;SDS011;7917;50.818;6.972;2023-03-16T14:39:31;2.50;;;1.70;;
15635;SDS011;7917;50.818;6.972;2023-03-16T14:42:00;2.55;;;1.85;;
15635;SDS011;7917;50.818;6.972;2023-03-16T14:44:29;4.40;;;2.63;;
15635;SDS011;7917;50.818;6.972;2023-03-16T14:47:00;3.72;;;2.28;;
15635;SDS011;7917;50.818;6.972;2023-03-16T14:49:36;2.60;;;2.20;;
15635;SDS011;7917;50.818;6.972;2023-03-16T14:52:05;4.45;;;2.08;;
15635;SDS011;7917;50.818;6.972;2023-03-16T14:54:50;5.38;;;2.15;;
15635;SDS011;7917;50.818;6.972;2023-03-16T14:57:17;4.32;;;2.15;;
15635;SDS011;7917;50.818;6.972;2023-03-16T14:59:44;3.25;;;2.22;;
15635;SDS011;7917;50.818;6.972;2023-03-16T15:02:13;5.38;;;2.40;;
15635;SDS011;7917;50.818;6.972;2023-03-16T15:04:43;5.05;;;2.20;;
15635;SDS011;7917;50.818;6.972;2023-03-16T15:07:17;7.90;;;2.83;;
15635;SDS011;7917;50.818;6.972;2023-03-16T15:09:49;3.13;;;2.05;;
15635;SDS011;7917;50.818;6.972;2023-03-16T15:12:18;4.28;;;2.47;;
15635;SDS011;7917;50.818;6.972;2023-03-16T15:14:46;3.03;;;2.45;;
15635;SDS011;7917;50.818;6.972;2023-03-16T15:17:33;4.50;;;2.47;;
15635;SDS011;7917;50.818;6.972;2023-03-16T15:20:01;5.82;;;2.60;;
15635;SDS011;7917;50.818;6.972;2023-03-16T15:22:29;3.47;;;2.25;;
15635;SDS011;7917;50.818;6.972;2023-03-16T15:24:57;5.13;;;2.58;;